Time;durP1;ratioP1;P1;durP2;ratioP2;P2;SDS_P1;SDS_P2;PMS_P1;PMS_P2;Temp;Humidity;BMP_temperature;BMP_pressure;BME280_temperature;BME280_humidity;BME280_pressure;Samples;Min_cycle;Max_cycle;Signal;HPM_P1;HPM_P2
2022/12/15 00:39:58;;;;;;;;;;;-2.80;99.90;;;;;;5066081;28;19928;-68
2022/12/15 00:42:27;;;;;;;;;;;-2.80;99.90;;;;;;5066236;28;20086;-68
2022/12/15 00:44:54;;;;;;;;;;;-2.80;99.90;;;;;;5066059;28;19921;-68
2022/12/15 00:47:19;;;;;;;;;;;-2.80;99.90;;;;;;5065610;28;19963;-68
2022/12/15 01:22:40;;;;;;;;;;;-2.70;99.90;;;;;;5065251;28;20258;-68
2022/12/15 01:25:09;;;;;;;;;;;-2.80;99.90;;;;;;5065047;28;19968;-68
2022/12/15 01:27:50;;;;;;;;;;;-2.80;99.90;;;;;;5062241;28;19980;-67
2022/12/15 01:30:17;;;;;;;;;;;-2.70;99.90;;;;;;5065274;28;19988;-67
2022/12/15 01:32:44;;;;;;;;;;;-2.80;99.90;;;;;;5065022;28;20256;-67
2022/12/15 01:35:11;;;;;;;;;;;-2.70;99.90;;;;;;5064850;28;20232;-68
2022/12/15 01:37:38;;;;;;;;;;;-2.70;99.90;;;;;;5064558;28;19988;-68
2022/12/15 01:42:51;;;;;;;;;;;-2.70;99.90;;;;;;5064950;28;19924;-69
2022/12/15 01:45:36;;;;;;;;;;;-2.80;99.90;;;;;;5064931;28;20189;-68
2022/12/15 01:48:05;;;;;;;;;;;-2.80;99.90;;;;;;5064650;28;19921;-69
2022/12/15 01:50:35;;;;;;;;;;;-2.80;99.90;;;;;;5065736;28;19988;-68
2022/12/15 01:53:02;;;;;;;;;;;-2.70;99.90;;;;;;5064880;28;19986;-68
2022/12/15 01:55:30;;;;;;;;;;;-2.70;99.90;;;;;;5064814;28;19952;-69
2022/12/15 01:58:00;;;;;;;;;;;-2.70;99.90;;;;;;5063842;28;19948;-69
2022/12/15 02:00:26;;;;;;;;;;;-2.70;99.90;;;;;;5064927;28;19991;-68
2022/12/15 02:02:54;;;;;;;;;;;-2.70;99.90;;;;;;5064766;28;19927;-67
2022/12/15 02:05:21;;;;;;;;;;;-2.70;99.90;;;;;;5064535;28;19960;-68
2022/12/15 02:07:48;;;;;;;;;;;-2.70;99.90;;;;;;5063314;28;20224;-71
2022/12/15 02:10:14;;;;;;;;;;;-2.70;99.90;;;;;;5064523;28;19952;-69
2022/12/15 02:12:46;;;;;;;;;;;-2.70;99.90;;;;;;5064631;28;19956;-68
2022/12/15 02:15:19;;;;;;;;;;;-2.70;99.90;;;;;;5064242;28;20280;-69
2022/12/15 02:17:51;;;;;;;;;;;-2.70;99.90;;;;;;5063947;28;19992;-68
2022/12/15 02:20:36;;;;;;;;;;;-2.70;99.90;;;;;;5064429;28;19987;-67
2022/12/15 02:23:20;;;;;;;;;;;-2.70;99.90;;;;;;5064368;28;20220;-69
2022/12/15 02:26:00;;;;;;;;;;;-2.70;99.90;;;;;;5063527;28;20172;-68
2022/12/15 02:28:43;;;;;;;;;;;-2.70;99.90;;;;;;5060833;28;19948;-69
2022/12/15 02:34:05;;;;;;;;;;;-2.70;99.90;;;;;;5062400;28;19966;-69
2022/12/15 02:36:35;;;;;;;;;;;-2.70;99.90;;;;;;5063482;28;19925;-69
2022/12/15 02:39:02;;;;;;;;;;;-2.70;99.90;;;;;;5064020;28;19921;-68
2022/12/15 02:41:32;;;;;;;;;;;-2.70;99.90;;;;;;5064120;28;19927;-68
2022/12/15 02:44:00;;;;;;;;;;;-2.70;99.90;;;;;;5063747;28;19952;-69
2022/12/15 02:46:31;;;;;;;;;;;-2.70;99.90;;;;;;5063316;28;19964;-68
2022/12/15 02:49:03;;;;;;;;;;;-2.70;99.90;;;;;;5064028;28;19952;-67
2022/12/15 02:51:36;;;;;;;;;;;-2.70;99.90;;;;;;5063895;28;20183;-70
2022/12/15 02:54:10;;;;;;;;;;;-2.70;99.90;;;;;;5063806;28;19959;-69
2022/12/15 02:56:43;;;;;;;;;;;-2.70;99.90;;;;;;5063205;28;19995;-68
2022/12/15 02:59:13;;;;;;;;;;;-2.70;99.90;;;;;;5063922;28;19992;-68
2022/12/15 03:01:46;;;;;;;;;;;-2.70;99.90;;;;;;5063172;28;20394;-70
2022/12/15 03:04:13;;;;;;;;;;;-2.70;99.90;;;;;;5063809;28;19920;-68
2022/12/15 03:06:40;;;;;;;;;;;-2.70;99.90;;;;;;5063152;28;19921;-69
2022/12/15 03:09:06;;;;;;;;;;;-2.70;99.90;;;;;;5063487;28;19921;-69
2022/12/15 03:11:33;;;;;;;;;;;-2.70;99.90;;;;;;5063868;28;19956;-69
2022/12/15 03:14:00;;;;;;;;;;;-2.70;99.90;;;;;;5063532;28;20255;-69
2022/12/15 03:16:27;;;;;;;;;;;-2.70;99.90;;;;;;5062740;28;19953;-69
2022/12/15 03:18:55;;;;;;;;;;;-2.70;99.90;;;;;;5063025;28;19927;-69
2022/12/15 03:21:22;;;;;;;;;;;-2.70;99.90;;;;;;5067860;28;20169;-68
2022/12/15 03:23:48;;;;;;;;;;;-2.80;99.90;;;;;;5067564;28;19959;-70
2022/12/15 03:26:15;;;;;;;;;;;-2.70;99.90;;;;;;5066857;28;20060;-69
2022/12/15 03:28:41;;;;;;;;;;;-2.70;99.90;;;;;;5067629;28;19921;-68
2022/12/15 03:31:08;;;;;;;;;;;-2.80;99.90;;;;;;5067585;28;19983;-69
2022/12/15 03:33:47;;;;;;;;;;;-2.80;99.90;;;;;;5066042;28;19988;-69
2022/12/15 03:36:15;;;;;;;;;;;-2.80;99.90;;;;;;5066903;28;19996;-69
2022/12/15 03:38:41;;;;;;;;;;;-2.80;99.90;;;;;;5067355;28;19955;-69
2022/12/15 03:41:08;;;;;;;;;;;-2.80;99.90;;;;;;5068369;28;20039;-69
2022/12/15 03:43:34;;;;;;;;;;;-2.80;99.90;;;;;;5067050;28;20317;-68
2022/12/15 03:46:01;;;;;;;;;;;-2.80;99.90;;;;;;5066637;28;19967;-69
2022/12/15 03:48:28;;;;;;;;;;;-2.80;99.90;;;;;;5067106;28;19988;-69
2022/12/15 03:50:54;;;;;;;;;;;-2.80;99.90;;;;;;5066902;28;20226;-68
2022/12/15 03:53:22;;;;;;;;;;;-2.80;99.90;;;;;;5067199;28;19963;-69
2022/12/15 03:55:49;;;;;;;;;;;-2.80;99.90;;;;;;5066723;28;19952;-70
2022/12/15 03:58:16;;;;;;;;;;;-2.70;99.90;;;;;;5066828;28;20164;-69
2022/12/15 04:00:42;;;;;;;;;;;-2.70;99.90;;;;;;5066819;28;19951;-68
2022/12/15 04:03:09;;;;;;;;;;;-2.70;99.90;;;;;;5066989;28;19952;-69
2022/12/15 04:05:36;;;;;;;;;;;-2.70;99.90;;;;;;5066607;28;19996;-73
2022/12/15 04:08:02;;;;;;;;;;;-2.70;99.90;;;;;;5066463;28;19986;-69
2022/12/15 04:10:31;;;;;;;;;;;-2.70;99.90;;;;;;5066474;28;19920;-68
2022/12/15 04:12:58;;;;;;;;;;;-2.80;99.90;;;;;;5066589;28;20244;-68
2022/12/15 04:15:25;;;;;;;;;;;-2.80;99.90;;;;;;5066420;28;19956;-68
2022/12/15 04:17:52;;;;;;;;;;;-2.80;99.90;;;;;;5066010;28;19920;-69
2022/12/15 04:20:18;;;;;;;;;;;-2.80;99.90;;;;;;5064156;28;19987;-68
2022/12/15 04:22:45;;;;;;;;;;;-2.80;99.90;;;;;;5066654;28;19924;-68
2022/12/15 05:32:26;;;;;;;;;;;-2.80;99.90;;;;;;5063782;28;19923;-70
2022/12/15 05:34:54;;;;;;;;;;;-2.80;99.90;;;;;;5064896;28;20228;-69
2022/12/15 05:37:20;;;;;;;;;;;-2.80;99.90;;;;;;5064292;28;20043;-69
2022/12/15 05:39:47;;;;;;;;;;;-2.80;99.90;;;;;;5065185;28;20055;-68
2022/12/15 05:42:13;;;;;;;;;;;-2.90;99.90;;;;;;5064105;28;20008;-68
2022/12/15 05:44:40;;;;;;;;;;;-2.90;99.90;;;;;;5065038;28;20209;-72
2022/12/15 05:47:08;;;;;;;;;;;-2.80;99.90;;;;;;5064220;28;19920;-69
2022/12/15 05:49:35;;;;;;;;;;;-2.80;99.90;;;;;;5064879;28;19948;-69
2022/12/15 05:52:07;;;;;;;;;;;-2.80;99.90;;;;;;5064815;28;19925;-67
2022/12/15 05:54:33;;;;;;;;;;;-2.80;99.90;;;;;;5064943;28;19921;-66
2022/12/15 05:57:00;;;;;;;;;;;-2.80;99.90;;;;;;5064242;28;19952;-68
2022/12/15 05:59:26;;;;;;;;;;;-2.80;99.90;;;;;;5065054;28;19959;-69
2022/12/15 06:01:53;;;;;;;;;;;-2.80;99.90;;;;;;5064737;28;19952;-68
2022/12/15 06:04:30;;;;;;;;;;;-2.80;99.90;;;;;;5062061;28;19955;-67
2022/12/15 06:06:56;;;;;;;;;;;-2.80;99.90;;;;;;5063869;28;20302;-69
2022/12/15 06:09:24;;;;;;;;;;;-2.80;99.90;;;;;;5064341;28;19959;-68
2022/12/15 06:11:51;;;;;;;;;;;-2.70;99.90;;;;;;5064111;28;20228;-68
2022/12/15 06:14:18;;;;;;;;;;;-2.70;99.90;;;;;;5064448;28;19948;-69
2022/12/15 06:16:44;;;;;;;;;;;-2.70;99.90;;;;;;5063334;28;19956;-68
2022/12/15 06:19:11;;;;;;;;;;;-2.70;99.90;;;;;;5064340;28;19992;-69
2022/12/15 06:21:37;;;;;;;;;;;-2.70;99.90;;;;;;5064384;28;19955;-69
2022/12/15 06:24:05;;;;;;;;;;;-2.70;99.90;;;;;;5064045;28;19955;-69
2022/12/15 06:26:34;;;;;;;;;;;-2.70;99.90;;;;;;5063147;28;20267;-73
2022/12/15 06:29:02;;;;;;;;;;;-2.70;99.90;;;;;;5064330;28;20179;-69
2022/12/15 06:31:29;;;;;;;;;;;-2.70;99.90;;;;;;5064006;28;19959;-69
2022/12/15 06:33:56;;;;;;;;;;;-2.60;99.90;;;;;;5063866;28;19952;-69
2022/12/15 06:36:23;;;;;;;;;;;-2.60;99.90;;;;;;5063229;28;20094;-69
2022/12/15 06:38:50;;;;;;;;;;;-2.60;99.90;;;;;;5064095;28;19955;-68
2022/12/15 06:41:18;;;;;;;;;;;-2.60;99.90;;;;;;5064135;28;19948;-68
2022/12/15 06:43:50;;;;;;;;;;;-2.60;99.90;;;;;;5063962;28;19952;-69
2022/12/15 06:46:17;;;;;;;;;;;-2.60;99.90;;;;;;5059228;28;19925;-69
2022/12/15 06:48:44;;;;;;;;;;;-2.60;99.90;;;;;;5063615;28;20228;-69
2022/12/15 06:51:12;;;;;;;;;;;-2.70;99.90;;;;;;5063787;28;19927;-68
2022/12/15 06:53:39;;;;;;;;;;;-2.70;99.90;;;;;;5063805;28;19959;-69
2022/12/15 06:56:08;;;;;;;;;;;-2.70;99.90;;;;;;5062814;28;19921;-72
2022/12/15 06:58:34;;;;;;;;;;;-2.60;99.90;;;;;;5063726;28;19979;-69
2022/12/15 07:01:06;;;;;;;;;;;-2.60;99.90;;;;;;5063594;28;19927;-69
2022/12/15 07:06:44;;;;;;;;;;;-2.60;99.90;;;;;;5062915;28;19954;-69
2022/12/15 07:09:12;;;;;;;;;;;-2.60;99.90;;;;;;5063743;28;20246;-69
2022/12/15 07:11:39;;;;;;;;;;;-2.60;99.90;;;;;;5063768;28;19963;-70
2022/12/15 07:14:06;;;;;;;;;;;-2.60;99.90;;;;;;5063587;28;19956;-70
2022/12/15 07:16:34;;;;;;;;;;;-2.60;99.90;;;;;;5063084;28;19956;-68
2022/12/15 07:19:00;;;;;;;;;;;-2.60;99.90;;;;;;5063411;28;19956;-67
2022/12/15 07:21:27;;;;;;;;;;;-2.60;99.90;;;;;;5063586;28;19956;-69
2022/12/15 07:23:53;;;;;;;;;;;-2.60;99.90;;;;;;5063257;28;20232;-68
2022/12/15 07:26:20;;;;;;;;;;;-2.60;99.90;;;;;;5063012;28;19960;-69
2022/12/15 07:28:47;;;;;;;;;;;-2.60;99.90;;;;;;5061712;28;19966;-69
2022/12/15 07:31:14;;;;;;;;;;;-2.50;99.90;;;;;;5063696;28;19983;-68
2022/12/15 07:33:42;;;;;;;;;;;-2.50;99.90;;;;;;5058545;28;20139;-67
2022/12/15 07:36:09;;;;;;;;;;;-2.50;99.90;;;;;;5060013;28;19952;-67
2022/12/15 07:38:36;;;;;;;;;;;-2.50;99.90;;;;;;5049207;28;19963;-69
2022/12/15 07:41:03;;;;;;;;;;;-2.50;99.90;;;;;;5062743;28;20164;-68
2022/12/15 07:43:31;;;;;;;;;;;-2.50;99.90;;;;;;5055076;28;19983;-68
2022/12/15 07:45:57;;;;;;;;;;;-2.50;99.90;;;;;;5058134;28;19921;-67
2022/12/15 07:48:25;;;;;;;;;;;-2.50;99.90;;;;;;5060387;28;20196;-68
2022/12/15 07:50:56;;;;;;;;;;;-2.50;99.90;;;;;;5062408;28;19921;-68
2022/12/15 07:53:24;;;;;;;;;;;-2.50;99.90;;;;;;5062789;28;19921;-68
2022/12/15 07:56:03;;;;;;;;;;;-2.40;99.90;;;;;;5069368;28;19928;-72
2022/12/15 07:58:37;;;;;;;;;;;-2.40;99.90;;;;;;5063585;28;19921;-70
2022/12/15 08:01:13;;;;;;;;;;;-2.40;99.90;;;;;;5068763;28;19921;-71
2022/12/15 08:03:47;;;;;;;;;;;-2.30;99.90;;;;;;5066997;28;19925;-70
2022/12/15 08:06:24;;;;;;;;;;;-2.30;99.90;;;;;;5068384;28;19927;-69
2022/12/15 08:08:52;;;;;;;;;;;-2.30;99.90;;;;;;5072417;28;19921;-71
2022/12/15 08:11:20;;;;;;;;;;;-2.30;99.90;;;;;;5063325;28;19921;-69
2022/12/15 08:13:47;;;;;;;;;;;-2.20;99.90;;;;;;5048714;28;19968;-69
2022/12/15 08:16:14;;;;;;;;;;;-2.30;99.90;;;;;;5057701;28;19929;-69
2022/12/15 08:18:41;;;;;;;;;;;-2.20;99.90;;;;;;5065409;28;19921;-70
2022/12/15 08:21:09;;;;;;;;;;;-2.20;99.90;;;;;;5066077;28;19948;-69
2022/12/15 08:23:37;;;;;;;;;;;-2.20;99.90;;;;;;5065383;28;20236;-72
2022/12/15 08:26:06;;;;;;;;;;;-2.20;99.90;;;;;;5050690;28;19987;-69
2022/12/15 08:28:34;;;;;;;;;;;-2.20;99.90;;;;;;5066529;28;19987;-69
2022/12/15 08:31:02;;;;;;;;;;;-2.30;99.90;;;;;;5046208;28;19984;-69
2022/12/15 08:33:28;;;;;;;;;;;-2.30;99.90;;;;;;5046521;28;20162;-68
2022/12/15 08:35:57;;;;;;;;;;;-2.30;99.90;;;;;;5056882;28;19992;-71
2022/12/15 08:38:23;;;;;;;;;;;-2.30;99.90;;;;;;5062233;28;19987;-68
2022/12/15 08:40:51;;;;;;;;;;;-2.30;99.90;;;;;;5058905;28;19963;-69
2022/12/15 08:43:18;;;;;;;;;;;-2.30;99.90;;;;;;5066318;28;19992;-69
2022/12/15 08:45:45;;;;;;;;;;;-2.20;99.90;;;;;;5065475;28;19982;-72
2022/12/15 08:48:11;;;;;;;;;;;-2.20;99.90;;;;;;5051047;28;19984;-68
2022/12/15 08:50:38;;;;;;;;;;;-2.30;99.90;;;;;;5065153;28;19959;-69
2022/12/15 08:53:04;;;;;;;;;;;-2.30;99.90;;;;;;5055603;28;20085;-68
2022/12/15 08:55:33;;;;;;;;;;;-2.30;99.90;;;;;;5045908;28;19920;-68
2022/12/15 08:58:01;;;;;;;;;;;-2.20;99.90;;;;;;5047333;28;19952;-68
2022/12/15 09:00:28;;;;;;;;;;;-2.20;99.90;;;;;;5065890;28;20062;-70
2022/12/15 09:02:58;;;;;;;;;;;-2.20;99.90;;;;;;5062985;28;20002;-69
2022/12/15 09:05:24;;;;;;;;;;;-2.20;99.90;;;;;;5065351;28;19920;-68
2022/12/15 09:07:54;;;;;;;;;;;-2.20;99.90;;;;;;5065032;28;19987;-69
2022/12/15 09:10:21;;;;;;;;;;;-2.10;99.90;;;;;;5065769;28;19921;-69
2022/12/15 09:12:47;;;;;;;;;;;-2.20;99.90;;;;;;5065640;28;19956;-69
2022/12/15 09:15:15;;;;;;;;;;;-2.10;99.90;;;;;;5060710;28;19975;-69
2022/12/15 09:17:42;;;;;;;;;;;-2.10;99.90;;;;;;5064037;28;20221;-70
2022/12/15 09:20:09;;;;;;;;;;;-2.10;99.90;;;;;;5065436;28;19925;-70
2022/12/15 09:22:36;;;;;;;;;;;-2.10;99.90;;;;;;5065463;28;19956;-69
2022/12/15 09:25:02;;;;;;;;;;;-2.10;99.90;;;;;;5065086;28;19959;-69
2022/12/15 09:27:30;;;;;;;;;;;-2.10;99.90;;;;;;5060032;28;19953;-69
2022/12/15 09:29:56;;;;;;;;;;;-2.00;99.90;;;;;;5049080;28;19925;-70
2022/12/15 09:32:24;;;;;;;;;;;-1.90;99.90;;;;;;5045207;28;19921;-70
2022/12/15 09:34:51;;;;;;;;;;;-1.80;99.90;;;;;;5050274;28;20259;-69
2022/12/15 09:37:18;;;;;;;;;;;-1.80;99.90;;;;;;5051634;28;19928;-70
2022/12/15 09:39:44;;;;;;;;;;;-1.80;99.90;;;;;;5044929;28;19936;-68
2022/12/15 09:42:20;;;;;;;;;;;-1.70;99.90;;;;;;5055727;28;19952;-69
2022/12/15 09:44:46;;;;;;;;;;;-1.70;99.90;;;;;;5064997;28;20158;-68
2022/12/15 09:47:16;;;;;;;;;;;-1.60;99.90;;;;;;5064227;28;19956;-68
2022/12/15 09:49:50;;;;;;;;;;;-1.60;99.90;;;;;;5064969;28;19956;-69
2022/12/15 09:52:19;;;;;;;;;;;-1.60;99.90;;;;;;5064781;28;19920;-69
2022/12/15 09:54:46;;;;;;;;;;;-1.50;99.90;;;;;;5064678;28;19983;-70
2022/12/15 09:57:18;;;;;;;;;;;-1.50;99.90;;;;;;5064340;28;20113;-69
2022/12/15 09:59:54;;;;;;;;;;;-1.40;99.90;;;;;;5064765;28;20017;-68
2022/12/15 10:02:34;;;;;;;;;;;-1.40;99.90;;;;;;5064790;28;19959;-69
2022/12/15 10:05:04;;;;;;;;;;;-1.30;99.90;;;;;;5061396;28;19921;-69
2022/12/15 10:07:34;;;;;;;;;;;-1.30;99.90;;;;;;5063974;28;19920;-69
2022/12/15 10:10:04;;;;;;;;;;;-1.20;99.90;;;;;;5045982;28;20094;-69
2022/12/15 10:12:33;;;;;;;;;;;-1.30;99.90;;;;;;5048670;28;19948;-69
2022/12/15 10:15:07;;;;;;;;;;;-1.20;99.90;;;;;;5048577;28;19921;-69
2022/12/15 10:17:41;;;;;;;;;;;-1.20;99.90;;;;;;5047667;28;19927;-70
2022/12/15 10:20:14;;;;;;;;;;;-1.20;99.90;;;;;;5064080;28;20236;-69
2022/12/15 10:22:42;;;;;;;;;;;-1.10;99.90;;;;;;5064494;28;20220;-69
2022/12/15 10:25:14;;;;;;;;;;;-1.10;99.90;;;;;;5048639;28;19960;-69
2022/12/15 10:27:48;;;;;;;;;;;-1.10;99.90;;;;;;5045433;28;19991;-69
2022/12/15 10:30:15;;;;;;;;;;;-1.10;99.90;;;;;;5064340;28;19956;-69
2022/12/15 10:32:44;;;;;;;;;;;-1.10;99.90;;;;;;5064246;28;20171;-68
2022/12/15 10:35:15;;;;;;;;;;;-1.00;99.90;;;;;;5064116;28;19959;-69
2022/12/15 10:37:44;;;;;;;;;;;-1.00;99.90;;;;;;5059436;28;19959;-68
2022/12/15 10:40:14;;;;;;;;;;;-1.10;99.90;;;;;;5043794;28;19963;-68
2022/12/15 10:42:45;;;;;;;;;;;-1.10;99.90;;;;;;5044085;28;19921;-69
2022/12/15 10:45:28;;;;;;;;;;;-1.10;99.90;;;;;;5044025;28;19952;-69
2022/12/15 10:47:57;;;;;;;;;;;-1.10;99.90;;;;;;5059168;28;20188;-70
2022/12/15 10:50:26;;;;;;;;;;;-1.10;99.90;;;;;;5064021;28;19920;-70
2022/12/15 10:52:54;;;;;;;;;;;-1.10;99.90;;;;;;5064010;28;19920;-70
2022/12/15 10:55:32;;;;;;;;;;;-1.10;99.90;;;;;;5063779;28;19955;-70
2022/12/15 10:58:01;;;;;;;;;;;-1.10;99.90;;;;;;5063113;28;19952;-69
2022/12/15 11:00:28;;;;;;;;;;;-1.00;99.90;;;;;;5063859;28;20208;-69
2022/12/15 11:03:14;;;;;;;;;;;-1.00;99.90;;;;;;5061443;28;19921;-70
2022/12/15 11:05:50;;;;;;;;;;;-1.00;99.90;;;;;;5063263;28;19956;-69
2022/12/15 11:08:19;;;;;;;;;;;-1.00;99.90;;;;;;5063233;28;19964;-69
2022/12/15 11:13:33;;;;;;;;;;;-1.00;99.90;;;;;;5063545;28;19948;-69
2022/12/15 11:16:10;;;;;;;;;;;-1.00;99.90;;;;;;5063205;28;19952;-69
2022/12/15 11:18:38;;;;;;;;;;;-1.00;99.90;;;;;;5066074;28;19959;-71
2022/12/15 11:21:08;;;;;;;;;;;-0.90;99.90;;;;;;5065946;28;19921;-71
2022/12/15 11:23:47;;;;;;;;;;;-1.00;99.90;;;;;;5066186;28;19920;-71
2022/12/15 11:26:22;;;;;;;;;;;-0.90;99.90;;;;;;5049192;28;19948;-70
2022/12/15 11:28:52;;;;;;;;;;;-0.90;99.90;;;;;;5048627;28;19921;-70
2022/12/15 11:31:23;;;;;;;;;;;-0.80;99.90;;;;;;5055341;28;19921;-71
2022/12/15 11:33:51;;;;;;;;;;;-0.90;99.90;;;;;;5046205;28;20222;-71
2022/12/15 11:36:22;;;;;;;;;;;-0.80;99.90;;;;;;5045289;28;19925;-69
2022/12/15 11:38:52;;;;;;;;;;;-0.80;99.90;;;;;;5043946;28;20233;-72
2022/12/15 11:41:30;;;;;;;;;;;-0.70;99.90;;;;;;5055943;28;19921;-69
2022/12/15 11:44:03;;;;;;;;;;;-0.70;99.90;;;;;;5067719;28;19988;-70
2022/12/15 11:46:33;;;;;;;;;;;-0.60;99.90;;;;;;5069101;28;19927;-71
2022/12/15 11:49:07;;;;;;;;;;;-0.50;99.90;;;;;;5056077;28;19921;-72
2022/12/15 11:51:40;;;;;;;;;;;-0.50;99.90;;;;;;5048074;28;19928;-70
2022/12/15 11:54:15;;;;;;;;;;;-0.50;99.90;;;;;;5048316;28;19921;-71
2022/12/15 11:56:44;;;;;;;;;;;-0.60;99.90;;;;;;5051192;28;19944;-71
2022/12/15 11:59:31;;;;;;;;;;;-0.40;99.90;;;;;;5062144;28;19928;-70
2022/12/15 12:02:08;;;;;;;;;;;-0.30;99.90;;;;;;5063801;28;20090;-72
2022/12/15 12:05:05;;;;;;;;;;;-0.30;99.90;;;;;;5064617;28;19928;-71
2022/12/15 12:07:36;;;;;;;;;;;-0.20;99.90;;;;;;5046707;28;19921;-71
2022/12/15 12:10:09;;;;;;;;;;;-0.20;99.90;;;;;;5047144;28;20193;-71
2022/12/15 12:12:39;;;;;;;;;;;-0.20;99.90;;;;;;5047067;28;19967;-72
2022/12/15 12:15:18;;;;;;;;;;;-0.20;99.90;;;;;;5046795;28;20232;-71
2022/12/15 12:17:46;;;;;;;;;;;-0.40;99.90;;;;;;5046527;28;19921;-70
2022/12/15 12:20:14;;;;;;;;;;;-0.50;99.90;;;;;;5046612;28;20121;-72
2022/12/15 12:22:44;;;;;;;;;;;-0.50;99.90;;;;;;5054709;28;20213;-72
2022/12/15 12:25:14;;;;;;;;;;;-0.50;99.90;;;;;;5062203;28;19975;-70
2022/12/15 12:27:45;;;;;;;;;;;-0.50;99.90;;;;;;5066022;28;19920;-72
2022/12/15 12:30:13;;;;;;;;;;;-0.50;99.90;;;;;;5067081;28;19975;-69
2022/12/15 12:32:43;;;;;;;;;;;-0.50;99.90;;;;;;5066669;28;19963;-69
2022/12/15 12:35:15;;;;;;;;;;;-0.50;99.90;;;;;;5066199;28;19960;-72
2022/12/15 12:37:43;;;;;;;;;;;-0.50;99.90;;;;;;5065963;28;19957;-69
2022/12/15 12:40:17;;;;;;;;;;;-0.50;99.90;;;;;;5066274;28;19956;-71
2022/12/15 12:42:48;;;;;;;;;;;-0.50;99.90;;;;;;5062534;28;20248;-71
2022/12/15 12:45:15;;;;;;;;;;;-0.50;99.90;;;;;;5057998;28;19921;-72
2022/12/15 12:47:44;;;;;;;;;;;-0.50;99.90;;;;;;5065810;28;20143;-71
2022/12/15 12:50:15;;;;;;;;;;;-0.50;99.90;;;;;;5066796;28;19989;-70
2022/12/15 12:52:47;;;;;;;;;;;-0.50;99.90;;;;;;5062626;28;20213;-71
2022/12/15 12:55:26;;;;;;;;;;;-0.50;99.90;;;;;;5060122;28;20174;-70
2022/12/15 12:57:53;;;;;;;;;;;-0.60;99.90;;;;;;5067072;28;19967;-75
2022/12/15 13:00:22;;;;;;;;;;;-0.60;99.90;;;;;;5066721;28;19962;-71
2022/12/15 13:03:17;;;;;;;;;;;-0.60;99.90;;;;;;5066323;28;19921;-70
2022/12/15 13:05:45;;;;;;;;;;;-0.60;99.90;;;;;;5067450;28;19921;-71
2022/12/15 13:08:30;;;;;;;;;;;-0.70;99.90;;;;;;5065437;28;19921;-68
2022/12/15 13:11:18;;;;;;;;;;;-0.70;99.90;;;;;;5059041;28;20335;-71
2022/12/15 13:13:47;;;;;;;;;;;-0.80;99.90;;;;;;5058553;28;19920;-71
2022/12/15 13:16:19;;;;;;;;;;;-0.90;99.90;;;;;;5066981;28;19943;-72
2022/12/15 13:18:56;;;;;;;;;;;-0.80;99.90;;;;;;5066522;28;19929;-69
2022/12/15 13:21:41;;;;;;;;;;;-0.90;99.90;;;;;;5067158;28;19921;-69
2022/12/15 13:24:18;;;;;;;;;;;-0.90;99.90;;;;;;5056122;28;19948;-69
2022/12/15 13:26:45;;;;;;;;;;;-0.90;99.90;;;;;;5064716;28;19928;-70
2022/12/15 13:29:21;;;;;;;;;;;-0.90;99.90;;;;;;5065602;28;19928;-69
2022/12/15 13:31:48;;;;;;;;;;;-0.90;99.90;;;;;;5066239;28;19921;-68
2022/12/15 13:34:17;;;;;;;;;;;-0.90;99.90;;;;;;5065775;28;19952;-70
2022/12/15 13:36:52;;;;;;;;;;;-0.80;99.90;;;;;;5048336;28;19921;-69
2022/12/15 13:39:37;;;;;;;;;;;-0.80;99.90;;;;;;5054438;28;19920;-68
2022/12/15 13:42:23;;;;;;;;;;;-0.90;99.90;;;;;;5065350;28;19956;-69
2022/12/15 13:44:54;;;;;;;;;;;-0.90;99.90;;;;;;5048939;28;19921;-68
2022/12/15 13:47:22;;;;;;;;;;;-0.90;99.90;;;;;;5052266;28;19921;-67
2022/12/15 13:49:52;;;;;;;;;;;-0.90;99.90;;;;;;5065520;28;19928;-68
2022/12/15 13:52:24;;;;;;;;;;;-1.00;99.90;;;;;;5065380;28;19956;-68
2022/12/15 13:54:53;;;;;;;;;;;-1.00;99.90;;;;;;5065006;28;19920;-67
2022/12/15 13:57:20;;;;;;;;;;;-1.00;99.90;;;;;;5064506;28;19978;-67
2022/12/15 13:59:48;;;;;;;;;;;-1.10;99.90;;;;;;5065103;28;19940;-68
2022/12/15 14:02:26;;;;;;;;;;;-1.10;99.90;;;;;;5064755;28;19921;-68
2022/12/15 14:05:06;;;;;;;;;;;-1.10;99.90;;;;;;5063185;28;19921;-68
2022/12/15 14:07:33;;;;;;;;;;;-1.10;99.90;;;;;;5065103;28;19936;-69
2022/12/15 14:10:00;;;;;;;;;;;-1.20;99.90;;;;;;5052329;28;20204;-68
2022/12/15 14:12:27;;;;;;;;;;;-1.20;99.90;;;;;;5055889;28;19921;-69
2022/12/15 14:14:54;;;;;;;;;;;-1.20;99.90;;;;;;5044964;28;19979;-67
2022/12/15 14:17:21;;;;;;;;;;;-1.30;99.90;;;;;;5044052;28;19921;-67
2022/12/15 14:19:50;;;;;;;;;;;-1.40;99.90;;;;;;5044731;28;19922;-68
2022/12/15 14:22:22;;;;;;;;;;;-1.40;99.90;;;;;;5044232;28;19960;-67
2022/12/15 14:24:49;;;;;;;;;;;-1.40;99.90;;;;;;5061660;28;19921;-68
2022/12/15 14:27:23;;;;;;;;;;;-1.40;99.90;;;;;;5063292;28;19921;-68
2022/12/15 14:29:50;;;;;;;;;;;-1.40;99.90;;;;;;5063887;28;19984;-68
2022/12/15 14:32:17;;;;;;;;;;;-1.40;99.90;;;;;;5064028;28;19952;-68
2022/12/15 14:34:44;;;;;;;;;;;-1.40;99.90;;;;;;5064043;28;20208;-70
2022/12/15 14:37:16;;;;;;;;;;;-1.40;99.90;;;;;;5063516;28;19952;-69
2022/12/15 14:39:44;;;;;;;;;;;-1.40;99.90;;;;;;5063173;28;19920;-68
2022/12/15 14:42:16;;;;;;;;;;;-1.40;99.90;;;;;;5064854;28;19920;-67
2022/12/15 14:44:45;;;;;;;;;;;-1.40;99.90;;;;;;5066177;28;20119;-71
2022/12/15 14:47:18;;;;;;;;;;;-1.40;99.90;;;;;;5064808;28;19920;-68
2022/12/15 14:49:47;;;;;;;;;;;-1.50;99.90;;;;;;5064329;28;19927;-68
2022/12/15 14:52:23;;;;;;;;;;;-1.50;99.90;;;;;;5065607;28;19927;-67
2022/12/15 14:54:51;;;;;;;;;;;-1.60;99.90;;;;;;5063772;28;19928;-68
2022/12/15 14:57:21;;;;;;;;;;;-1.60;99.90;;;;;;5063977;28;20046;-69
2022/12/15 14:59:50;;;;;;;;;;;-1.70;99.90;;;;;;5064087;28;19952;-69
2022/12/15 15:02:21;;;;;;;;;;;-1.80;99.90;;;;;;5064989;28;19966;-68
2022/12/15 15:05:01;;;;;;;;;;;-1.80;99.90;;;;;;5062382;28;19943;-69
2022/12/15 15:07:30;;;;;;;;;;;-1.80;99.90;;;;;;5063963;28;19937;-68
2022/12/15 15:09:57;;;;;;;;;;;-1.80;99.90;;;;;;5063683;28;19921;-68
2022/12/15 15:12:24;;;;;;;;;;;-1.80;99.90;;;;;;5063918;28;19920;-68
2022/12/15 15:14:52;;;;;;;;;;;-1.80;99.90;;;;;;5065658;28;19928;-68
2022/12/15 15:17:24;;;;;;;;;;;-1.90;99.90;;;;;;5067946;28;19952;-69
2022/12/15 15:19:53;;;;;;;;;;;-1.90;99.90;;;;;;5068480;28;19921;-68
2022/12/15 15:22:31;;;;;;;;;;;-1.90;99.90;;;;;;5068365;28;19976;-69
2022/12/15 15:24:59;;;;;;;;;;;-1.90;99.90;;;;;;5068457;28;19928;-69
2022/12/15 15:27:31;;;;;;;;;;;-1.90;99.90;;;;;;5067717;28;19962;-68
2022/12/15 15:30:20;;;;;;;;;;;-1.90;99.90;;;;;;5068048;28;19920;-68
2022/12/15 15:32:51;;;;;;;;;;;-1.90;99.90;;;;;;5067889;28;19947;-68
2022/12/15 15:35:18;;;;;;;;;;;-1.80;99.90;;;;;;5067229;28;19921;-68
2022/12/15 15:37:45;;;;;;;;;;;-1.90;99.90;;;;;;5065537;28;20251;-69
2022/12/15 15:40:15;;;;;;;;;;;-1.90;99.90;;;;;;5067625;28;19921;-68
2022/12/15 15:42:44;;;;;;;;;;;-1.90;99.90;;;;;;5068802;28;19921;-68
2022/12/15 15:45:12;;;;;;;;;;;-1.90;99.90;;;;;;5068112;28;19920;-68
2022/12/15 15:47:39;;;;;;;;;;;-2.00;99.90;;;;;;5066624;28;19921;-69
2022/12/15 15:50:06;;;;;;;;;;;-2.00;99.90;;;;;;5066891;28;19963;-67
2022/12/15 15:52:33;;;;;;;;;;;-2.10;99.90;;;;;;5067516;28;19928;-66
2022/12/15 15:55:00;;;;;;;;;;;-2.00;99.90;;;;;;5067917;28;19967;-67
2022/12/15 15:57:35;;;;;;;;;;;-2.10;99.90;;;;;;5065303;28;19963;-66
2022/12/15 16:00:02;;;;;;;;;;;-2.00;99.90;;;;;;5067687;28;19988;-68
2022/12/15 16:02:29;;;;;;;;;;;-2.10;99.90;;;;;;5067687;28;19921;-68
2022/12/15 16:04:55;;;;;;;;;;;-2.10;99.90;;;;;;5064108;28;19928;-67
2022/12/15 16:07:23;;;;;;;;;;;-2.10;99.90;;;;;;5048951;28;19936;-67
2022/12/15 16:09:50;;;;;;;;;;;-2.10;99.90;;;;;;5049758;28;19925;-70
2022/12/15 16:12:23;;;;;;;;;;;-2.10;99.90;;;;;;5071162;28;20229;-71
2022/12/15 16:14:51;;;;;;;;;;;-2.10;99.90;;;;;;5070178;28;19921;-67
2022/12/15 16:17:18;;;;;;;;;;;-2.10;99.90;;;;;;5068859;28;19959;-68
2022/12/15 16:19:45;;;;;;;;;;;-2.10;99.90;;;;;;5070098;28;19928;-68
2022/12/15 16:22:15;;;;;;;;;;;-2.10;99.90;;;;;;5069043;28;20043;-68
2022/12/15 16:24:42;;;;;;;;;;;-2.10;99.90;;;;;;5064659;28;19943;-70
2022/12/15 16:27:09;;;;;;;;;;;-2.10;99.90;;;;;;5068519;28;20095;-71
2022/12/15 16:29:36;;;;;;;;;;;-2.10;99.90;;;;;;5069552;28;19960;-68
2022/12/15 16:32:05;;;;;;;;;;;-2.10;99.90;;;;;;5068654;28;19927;-67
2022/12/15 16:34:32;;;;;;;;;;;-2.20;99.90;;;;;;5069106;28;19952;-68
2022/12/15 16:36:59;;;;;;;;;;;-2.20;99.90;;;;;;5062169;28;19952;-68
2022/12/15 16:39:26;;;;;;;;;;;-2.20;99.90;;;;;;5068845;28;19921;-68
2022/12/15 16:41:54;;;;;;;;;;;-2.20;99.90;;;;;;5069299;28;20233;-69
2022/12/15 16:44:21;;;;;;;;;;;-2.20;99.90;;;;;;5069710;28;19943;-70
2022/12/15 16:46:48;;;;;;;;;;;-2.30;99.90;;;;;;5069216;28;19921;-69
2022/12/15 16:49:16;;;;;;;;;;;-2.30;99.90;;;;;;5070160;28;19921;-74
2022/12/15 16:51:43;;;;;;;;;;;-2.30;99.90;;;;;;5067972;28;19928;-70
2022/12/15 16:54:14;;;;;;;;;;;-2.20;99.90;;;;;;5074663;28;19944;-70
2022/12/15 16:56:42;;;;;;;;;;;-2.20;99.90;;;;;;5074810;28;19928;-70
2022/12/15 16:59:11;;;;;;;;;;;-2.30;99.90;;;;;;5069725;28;19952;-70
2022/12/15 17:01:38;;;;;;;;;;;-2.20;99.90;;;;;;5075453;28;19927;-70